Morning Charlotte — 3EMA2 — position and weather

sailwx.info

Track history (hours):
 
Tides and Currents Weather Stations Pressure Air Temp Water Temp Dewpoint Dewpoint Depression Visibility Wind Speed Wind Dir Waves Ship Positions

Morning Charlotte

Last reported at 2015-Aug-03 21:28 UTC. Time now 2015-Aug-03 21:34 UTC.
Position N 33°01' E 124°30'.

Length 200 m; draft 8.6 m.

Type: Ship (hazmat cat A). MMSI: 357275000.

Date/timePositionNaut miles runAvg speedWind from/ knotsBaromVisibWave heightAir tempDewpointWater temp
2015-Aug-03 21:28N 33°01' E 124°30'1618.0
2015-Aug-03 20:33N 32°44' E 124°32'1919.0
2015-Aug-03 19:33N 32°26' E 124°37'2019.6
2015-Aug-03 18:33N 32°07' E 124°42'  
2015-Jul-27 01:15N 01°17' E 104°12'1216.9
2015-Jul-27 00:33N 01°15' E 104°01'7 6.1
2015-Jul-26 23:25N 01°16' E 103°54'0 0.0
2015-Jul-26 22:31N 01°16' E 103°54'0 0.0
2015-Jul-26 21:28N 01°16' E 103°54'0 0.0
2015-Jul-26 20:31N 01°16' E 103°54'0 0.0
2015-Jul-26 19:28N 01°16' E 103°54'0 0.0
2015-Jul-26 17:28N 01°16' E 103°54'0 0.0
2015-Jul-26 16:16N 01°16' E 103°54'0 0.0
2015-Jul-26 14:31N 01°16' E 103°54'0 0.0
2015-Jul-26 13:28N 01°16' E 103°54'0 0.0
2015-Jul-26 12:25N 01°16' E 103°54'0 0.0
2015-Jul-26 11:31N 01°16' E 103°54'0 0.0
2015-Jul-26 10:28N 01°16' E 103°54'0 0.0
2015-Jul-26 09:25N 01°16' E 103°54'0 0.1
2015-Jul-26 08:28N 01°16' E 103°54'4 4.3
2015-Jul-26 07:33N 01°13' E 103°51'8 8.0
2015-Jul-26 06:33N 01°17' E 103°45'0 0.4
2015-Jul-26 05:29N 01°17' E 103°45'0 0.0
2015-Jul-26 04:32N 01°17' E 103°45'0 0.0
2015-Jul-26 03:32N 01°17' E 103°45'0 0.0
2015-Jul-26 02:29N 01°17' E 103°45'0 0.0
2015-Jul-26 01:32N 01°17' E 103°45'0 0.0
2015-Jul-26 00:32N 01°17' E 103°45'1 0.8
2015-Jul-25 23:33N 01°17' E 103°45'4 3.5
2015-Jul-25 22:33N 01°14' E 103°42'8 7.6
2015-Jul-25 21:31N 01°13' E 103°35'10311.5
2015-Jul-25 12:33N 02°03' E 102°04'3215.8
2015-Jul-25 10:33N 02°22' E 101°39'4916.4
2015-Jul-25 07:33N 02°50' E 100°59'3316.2
2015-Jul-25 05:33N 03°11' E 100°34'2110.5
2015-Jul-25 03:31N 03°28' E 100°21'1 0.6
2015-Jul-25 02:20N 03°27' E 100°22'1 0.4
2015-Jul-25 00:27N 03°28' E 100°22'  
Track history (hours):
 
Tides and Currents Weather Stations Pressure Air Temp Water Temp Dewpoint Dewpoint Depression Visibility Wind Speed Wind Dir Waves Ship Positions

Morning Charlotte

Last reported at 2015-Aug-03 21:28 UTC. Time now 2015-Aug-03 21:34 UTC.
Position N 33°01' E 124°30'.

Length 200 m; draft 8.6 m.

Type: Ship (hazmat cat A). MMSI: 357275000.

Date/timePositionNaut miles runAvg speedWind from/ knotsBaromVisibWave heightAir tempDewpointWater temp
2015-Aug-03 21:28N 33°01' E 124°30'1618.0
2015-Aug-03 20:33N 32°44' E 124°32'1919.0
2015-Aug-03 19:33N 32°26' E 124°37'2019.6
2015-Aug-03 18:33N 32°07' E 124°42'  
2015-Jul-27 01:15N 01°17' E 104°12'1216.9
2015-Jul-27 00:33N 01°15' E 104°01'7 6.1
2015-Jul-26 23:25N 01°16' E 103°54'0 0.0
2015-Jul-26 22:31N 01°16' E 103°54'0 0.0
2015-Jul-26 21:28N 01°16' E 103°54'0 0.0
2015-Jul-26 20:31N 01°16' E 103°54'0 0.0
2015-Jul-26 19:28N 01°16' E 103°54'0 0.0
2015-Jul-26 17:28N 01°16' E 103°54'0 0.0
2015-Jul-26 16:16N 01°16' E 103°54'0 0.0
2015-Jul-26 14:31N 01°16' E 103°54'0 0.0
2015-Jul-26 13:28N 01°16' E 103°54'0 0.0
2015-Jul-26 12:25N 01°16' E 103°54'0 0.0
2015-Jul-26 11:31N 01°16' E 103°54'0 0.0
2015-Jul-26 10:28N 01°16' E 103°54'0 0.0
2015-Jul-26 09:25N 01°16' E 103°54'0 0.1
2015-Jul-26 08:28N 01°16' E 103°54'4 4.3
2015-Jul-26 07:33N 01°13' E 103°51'8 8.0
2015-Jul-26 06:33N 01°17' E 103°45'0 0.4
2015-Jul-26 05:29N 01°17' E 103°45'0 0.0
2015-Jul-26 04:32N 01°17' E 103°45'0 0.0
2015-Jul-26 03:32N 01°17' E 103°45'0 0.0
2015-Jul-26 02:29N 01°17' E 103°45'0 0.0
2015-Jul-26 01:32N 01°17' E 103°45'0 0.0
2015-Jul-26 00:32N 01°17' E 103°45'1 0.8
2015-Jul-25 23:33N 01°17' E 103°45'4 3.5
2015-Jul-25 22:33N 01°14' E 103°42'8 7.6
2015-Jul-25 21:31N 01°13' E 103°35'10311.5
2015-Jul-25 12:33N 02°03' E 102°04'3215.8
2015-Jul-25 10:33N 02°22' E 101°39'4916.4
2015-Jul-25 07:33N 02°50' E 100°59'3316.2
2015-Jul-25 05:33N 03°11' E 100°34'2110.5
2015-Jul-25 03:31N 03°28' E 100°21'1 0.6
2015-Jul-25 02:20N 03°27' E 100°22'1 0.4
2015-Jul-25 00:27N 03°28' E 100°22'  

Dump ship's entire track history